createdAt,value
2023-01-30T00:22:11.096Z,87.61
2023-01-30T00:50:44.499Z,87.48
2023-01-30T01:19:10.386Z,87.5
2023-01-30T01:47:32.096Z,89.65
2023-01-30T02:15:56.500Z,88.74
2023-01-30T02:44:35.446Z,89.91
2023-01-30T03:13:02.061Z,89.91
2023-01-30T03:41:27.357Z,89.15
2023-01-30T04:10:01.290Z,87.48
2023-01-30T04:38:35.092Z,86.63
2023-01-30T05:07:07.530Z,86.95
2023-01-30T05:35:27.597Z,86.19
2023-01-30T06:04:05.571Z,84.78
2023-01-30T06:32:20.536Z,84.32
2023-01-30T07:00:39.410Z,84.71
2023-01-30T07:29:03.458Z,83.95
2023-01-30T07:57:29.262Z,82.72
2023-01-30T08:26:03.290Z,82.22
2023-01-30T08:54:36.452Z,81.85
2023-01-30T09:23:04.005Z,81.17
2023-01-30T09:51:33.330Z,79.58
2023-01-30T10:19:52.520Z,79.91
2023-01-30T10:48:15.842Z,79.34
2023-01-30T11:16:34.817Z,78.37
2023-01-30T11:45:18.380Z,77.72
2023-01-30T12:13:16.233Z,79.54
2023-01-30T12:41:32.714Z,80.25
2023-01-30T13:09:55.892Z,84.01
2023-01-30T13:38:12.053Z,86.13
2023-01-30T14:06:38.917Z,85.76
2023-01-30T14:34:59.900Z,85.63
2023-01-30T15:03:24.156Z,85.76
2023-01-30T15:31:43.855Z,87.97
2023-01-30T16:00:23.372Z,88.68
2023-01-30T16:28:20.966Z,88.29
2023-01-30T16:56:39.829Z,88.14
2023-01-30T17:25:27.908Z,89
2023-01-30T17:53:36.614Z,89.46
2023-01-30T18:21:56.142Z,89.13
2023-01-30T18:50:24.081Z,89.13
2023-01-30T19:19:07.527Z,88.71
2023-01-30T19:47:42.310Z,89.58
2023-01-30T20:16:15.767Z,89.03
2023-01-30T20:44:48.619Z,88.48
2023-01-30T21:13:10.841Z,88.74
2023-01-30T21:41:41.778Z,88.21
2023-01-30T22:10:06.372Z,88.01
2023-01-30T22:38:42.303Z,88.5
2023-01-30T23:07:04.841Z,88.91
2023-01-30T23:35:37.754Z,89.52
